Time;durP1;ratioP1;P1;durP2;ratioP2;P2;SDS_P1;SDS_P2;PMS_P1;PMS_P2;Temp;Humidity;BMP_temperature;BMP_pressure;BME280_temperature;BME280_humidity;BME280_pressure;Samples;Min_cycle;Max_cycle;Signal;HPM_P1;HPM_P2
2023/02/13 00:00:55;;;;;;;14.87;12.93;;;5.00;99.90;;;;;;5034778;28;20218;-89
2023/02/13 00:03:21;;;;;;;19.57;12.83;;;5.00;99.90;;;;;;5024475;28;20181;-90
2023/02/13 00:05:47;;;;;;;13.87;12.17;;;4.90;99.90;;;;;;5034590;28;20209;-90
2023/02/13 00:08:12;;;;;;;15.57;13.13;;;4.80;99.90;;;;;;5028028;28;20201;-90
2023/02/13 00:10:38;;;;;;;17.57;14.07;;;4.90;99.90;;;;;;5035275;28;20295;-89
2023/02/13 00:13:04;;;;;;;15.47;13.27;;;4.80;99.90;;;;;;5031248;28;20544;-91
2023/02/13 00:15:29;;;;;;;16.20;12.87;;;4.90;99.90;;;;;;5015782;28;20221;-89
2023/02/13 00:17:55;;;;;;;16.03;13.80;;;4.90;99.90;;;;;;5015713;28;20188;-89
2023/02/13 00:20:21;;;;;;;17.67;14.57;;;4.90;99.90;;;;;;5017906;28;20188;-89
2023/02/13 00:22:46;;;;;;;17.00;13.67;;;4.90;99.90;;;;;;5036065;28;20180;-90
2023/02/13 00:25:12;;;;;;;16.37;13.80;;;4.80;99.90;;;;;;5035560;28;20201;-90
2023/02/13 00:27:38;;;;;;;16.57;13.07;;;4.80;99.90;;;;;;5036813;28;20188;-91
2023/02/13 00:30:04;;;;;;;16.37;13.23;;;4.90;99.90;;;;;;5055429;28;20165;-94
2023/02/13 00:32:30;;;;;;;15.97;13.67;;;4.90;99.90;;;;;;5056316;28;20169;-92
2023/02/13 00:34:57;;;;;;;17.13;15.27;;;4.80;99.90;;;;;;5056200;28;20278;-93
2023/02/13 00:37:23;;;;;;;16.90;14.30;;;4.90;99.90;;;;;;5045418;28;20253;-90
2023/02/13 00:39:48;;;;;;;17.03;13.37;;;4.90;99.90;;;;;;5040226;28;20239;-90
2023/02/13 00:42:14;;;;;;;15.83;13.50;;;4.80;99.90;;;;;;5033848;28;20177;-90
2023/02/13 00:44:40;;;;;;;14.90;13.07;;;4.80;99.90;;;;;;5032771;28;20216;-90
2023/02/13 00:47:05;;;;;;;15.13;12.80;;;4.80;99.90;;;;;;5034205;28;20185;-90
2023/02/13 00:49:31;;;;;;;15.63;13.60;;;4.90;99.90;;;;;;5034604;28;20185;-90
2023/02/13 00:51:56;;;;;;;16.70;13.53;;;4.90;99.90;;;;;;5034716;28;20188;-89
2023/02/13 00:54:22;;;;;;;17.60;13.63;;;4.80;99.90;;;;;;5035099;28;20873;-90
2023/02/13 00:56:48;;;;;;;15.23;13.70;;;4.80;99.90;;;;;;5018546;28;20198;-89
2023/02/13 00:59:14;;;;;;;15.90;13.70;;;4.80;99.90;;;;;;5016028;28;20177;-90
2023/02/13 01:01:40;;;;;;;15.30;12.97;;;4.80;99.90;;;;;;5019723;28;20589;-90
2023/02/13 01:04:05;;;;;;;14.23;12.47;;;4.80;99.90;;;;;;5028413;28;20208;-90
2023/02/13 01:06:33;;;;;;;16.60;14.33;;;4.90;99.90;;;;;;5031997;28;20808;-89
2023/02/13 01:08:58;;;;;;;15.90;13.00;;;4.90;99.90;;;;;;5033666;28;20247;-90
2023/02/13 01:11:24;;;;;;;15.57;13.93;;;4.80;99.90;;;;;;5016478;28;20550;-89
2023/02/13 01:13:50;;;;;;;17.47;15.40;;;4.80;99.90;;;;;;5028979;28;20200;-91
2023/02/13 01:16:16;;;;;;;16.47;13.53;;;4.80;99.90;;;;;;5034389;28;20240;-88
2023/02/13 01:18:43;;;;;;;18.33;14.77;;;4.70;99.90;;;;;;5033954;28;20189;-90
2023/02/13 01:21:17;;;;;;;17.37;14.77;;;4.70;99.90;;;;;;5035092;28;20185;-89
2023/02/13 01:23:43;;;;;;;16.23;14.17;;;4.70;99.90;;;;;;5035725;28;20177;-88
2023/02/13 01:26:16;;;;;;;17.97;15.20;;;4.70;99.90;;;;;;5035943;28;20196;-90
2023/02/13 01:28:42;;;;;;;18.63;15.60;;;4.70;99.90;;;;;;5035138;28;20268;-88
2023/02/13 01:31:08;;;;;;;16.33;13.73;;;4.60;99.90;;;;;;5038611;28;20204;-90
2023/02/13 01:33:34;;;;;;;17.00;13.47;;;4.60;99.90;;;;;;5038382;28;20184;-91
2023/02/13 01:36:05;;;;;;;18.33;14.77;;;4.50;99.90;;;;;;5038525;28;20224;-90
2023/02/13 01:38:31;;;;;;;18.90;14.37;;;4.40;99.90;;;;;;5039695;28;20179;-89
2023/02/13 01:40:57;;;;;;;21.33;16.20;;;4.40;99.90;;;;;;5039644;28;20761;-90
2023/02/13 01:43:23;;;;;;;18.63;14.27;;;4.30;99.90;;;;;;5037361;28;20242;-89
2023/02/13 01:45:54;;;;;;;18.70;15.97;;;4.20;99.90;;;;;;5038476;28;20562;-91
2023/02/13 01:48:23;;;;;;;19.60;14.90;;;4.10;99.90;;;;;;5038363;28;20165;-90
2023/02/13 01:50:58;;;;;;;20.20;15.27;;;4.10;99.90;;;;;;5047282;28;20193;-90
2023/02/13 01:53:32;;;;;;;21.03;15.13;;;4.00;99.90;;;;;;5044766;28;20184;-90
2023/02/13 01:56:18;;;;;;;18.90;15.70;;;4.00;99.90;;;;;;5050873;28;20211;-91
2023/02/13 01:58:46;;;;;;;17.77;14.30;;;4.00;99.90;;;;;;5052631;28;20270;-90
2023/02/13 02:01:11;;;;;;;17.10;15.30;;;4.00;99.90;;;;;;5049741;28;20328;-87
2023/02/13 02:03:43;;;;;;;18.10;15.30;;;4.00;99.90;;;;;;5041188;28;20654;-89
2023/02/13 02:06:15;;;;;;;17.60;14.53;;;4.10;99.90;;;;;;5038166;28;20200;-91
2023/02/13 02:08:41;;;;;;;18.30;14.47;;;4.10;99.90;;;;;;5038597;28;20161;-89
2023/02/13 02:11:16;;;;;;;17.77;13.93;;;4.10;99.90;;;;;;5038341;28;20714;-90
2023/02/13 02:13:43;;;;;;;18.77;14.70;;;4.10;99.90;;;;;;5037671;28;20663;-88
2023/02/13 02:16:09;;;;;;;18.83;14.73;;;4.10;99.90;;;;;;5037326;28;20221;-91
2023/02/13 02:18:34;;;;;;;17.43;15.10;;;4.10;99.90;;;;;;5037455;28;20192;-90
2023/02/13 02:21:19;;;;;;;17.73;14.00;;;4.10;99.90;;;;;;5037407;28;20186;-90
2023/02/13 02:24:20;;;;;;;19.90;16.33;;;4.10;99.90;;;;;;5038457;28;20187;-90
2023/02/13 02:27:16;;;;;;;16.40;14.50;;;4.20;99.90;;;;;;5035240;28;20220;-90
2023/02/13 02:29:51;;;;;;;17.50;14.10;;;4.10;99.90;;;;;;5037108;28;20181;-89
2023/02/13 02:32:33;;;;;;;18.80;14.37;;;4.00;99.90;;;;;;5041464;28;20192;-92
2023/02/13 02:35:08;;;;;;;21.00;15.27;;;3.90;99.90;;;;;;5050195;28;20405;-89
2023/02/13 02:38:01;;;;;;;18.80;15.03;;;3.90;99.90;;;;;;5036131;28;20191;-90
2023/02/13 02:40:41;;;;;;;17.30;14.97;;;3.90;99.90;;;;;;5036097;28;20173;-88
2023/02/13 02:43:28;;;;;;;19.27;15.87;;;3.80;99.90;;;;;;5036942;28;20835;-90
2023/02/13 02:46:08;;;;;;;20.13;15.37;;;3.80;99.90;;;;;;5037072;28;20196;-90
2023/02/13 02:51:56;;;;;;;17.03;14.53;;;3.90;99.90;;;;;;5036865;28;20192;-90
2023/02/13 03:06:09;;;;;;;17.77;14.67;;;4.10;99.90;;;;;;5020599;28;20197;-90
2023/02/13 03:14:05;;;;;;;16.90;14.80;;;4.00;99.90;;;;;;5037227;28;20504;-90
2023/02/13 03:22:25;;;;;;;16.80;15.00;;;4.10;99.90;;;;;;5035838;28;20276;-90
2023/02/13 03:25:06;;;;;;;16.07;14.37;;;4.20;99.90;;;;;;5034869;28;20210;-90
2023/02/13 03:30:55;;;;;;;17.53;14.37;;;4.00;99.90;;;;;;5015934;28;20173;-89
2023/02/13 03:33:31;;;;;;;17.17;13.80;;;3.90;99.90;;;;;;5017071;28;20647;-90
2023/02/13 03:39:02;;;;;;;15.93;13.90;;;3.80;99.90;;;;;;5020762;28;20257;-89
2023/02/13 03:41:44;;;;;;;15.60;12.83;;;3.80;99.90;;;;;;5036960;28;20673;-89
2023/02/13 03:44:32;;;;;;;16.90;14.37;;;4.00;99.90;;;;;;5035505;28;20192;-90
2023/02/13 03:47:00;;;;;;;15.70;14.00;;;4.10;99.90;;;;;;5036213;28;20765;-89
2023/02/13 03:52:22;;;;;;;16.90;13.80;;;4.00;99.90;;;;;;5034024;28;20205;-91
2023/02/13 04:00:26;;;;;;;17.57;14.23;;;4.20;99.90;;;;;;5033674;28;20667;-89
2023/02/13 04:03:04;;;;;;;15.23;13.63;;;4.10;99.90;;;;;;5020959;28;20188;-91
2023/02/13 04:05:35;;;;;;;14.97;13.30;;;4.00;99.90;;;;;;5016684;28;20197;-91
2023/02/13 04:08:01;;;;;;;15.57;13.97;;;3.90;99.90;;;;;;5016766;28;20178;-90
2023/02/13 04:10:33;;;;;;;17.87;15.20;;;3.90;99.90;;;;;;5033977;28;20199;-89
2023/02/13 04:13:31;;;;;;;16.43;14.47;;;3.90;99.90;;;;;;5037471;28;20203;-88
2023/02/13 04:16:07;;;;;;;15.70;14.00;;;4.00;99.90;;;;;;5034521;28;20216;-90
2023/02/13 04:18:33;;;;;;;16.43;14.37;;;3.90;99.90;;;;;;5035599;28;20230;-92
2023/02/13 04:21:06;;;;;;;16.93;15.13;;;4.00;99.90;;;;;;5035624;28;20200;-90
2023/02/13 04:23:32;;;;;;;17.40;13.93;;;3.90;99.90;;;;;;5034389;28;20169;-90
2023/02/13 04:26:02;;;;;;;14.90;13.40;;;3.80;99.90;;;;;;5035161;28;20197;-90
2023/02/13 04:28:28;;;;;;;16.13;13.77;;;3.90;99.90;;;;;;5034395;28;20212;-90
2023/02/13 04:30:54;;;;;;;15.27;12.90;;;3.80;99.90;;;;;;5034745;28;20338;-88
2023/02/13 04:33:19;;;;;;;15.23;13.63;;;3.90;99.90;;;;;;5035515;28;20535;-91
2023/02/13 04:35:45;;;;;;;15.60;13.50;;;4.00;99.70;;;;;;5032497;28;20238;-89
2023/02/13 04:38:11;;;;;;;14.97;13.23;;;3.90;97.90;;;;;;5033372;28;20181;-90
2023/02/13 04:40:36;;;;;;;14.70;13.20;;;3.80;98.80;;;;;;5049988;28;20263;-93
2023/02/13 04:43:02;;;;;;;17.63;14.93;;;3.80;99.40;;;;;;5054976;28;20201;-91
2023/02/13 04:45:28;;;;;;;17.67;15.23;;;3.70;99.80;;;;;;5054758;28;20234;-93
2023/02/13 04:47:55;;;;;;;17.40;14.13;;;3.80;99.90;;;;;;5044395;28;20231;-89
2023/02/13 04:50:21;;;;;;;14.73;13.13;;;3.70;99.90;;;;;;5034386;28;20549;-90
2023/02/13 04:52:49;;;;;;;16.53;14.73;;;3.60;99.90;;;;;;5034825;28;20241;-89
2023/02/13 04:55:15;;;;;;;18.03;15.40;;;3.60;99.90;;;;;;5034655;28;20217;-90
2023/02/13 04:57:40;;;;;;;17.43;14.67;;;3.60;99.90;;;;;;5030309;28;20319;-89
2023/02/13 05:00:07;;;;;;;16.17;14.50;;;3.60;99.90;;;;;;5030046;28;20181;-90
2023/02/13 05:02:33;;;;;;;17.27;15.37;;;3.60;99.90;;;;;;5035222;28;20600;-90
2023/02/13 05:04:58;;;;;;;18.80;14.13;;;3.50;99.90;;;;;;5037366;28;20232;-90
2023/02/13 05:07:24;;;;;;;17.73;14.97;;;3.60;99.90;;;;;;5037753;28;20208;-90
2023/02/13 05:09:50;;;;;;;16.93;15.13;;;3.40;99.90;;;;;;5037105;28;20181;-89
2023/02/13 05:12:15;;;;;;;19.37;17.33;;;3.40;99.90;;;;;;5037135;28;20237;-89
2023/02/13 05:14:41;;;;;;;18.70;15.93;;;3.40;99.90;;;;;;5034929;28;20209;-90
2023/02/13 05:17:07;;;;;;;21.83;19.63;;;3.30;99.90;;;;;;5038240;28;20271;-90
2023/02/13 05:19:32;;;;;;;21.63;19.40;;;3.30;99.90;;;;;;5037237;28;20169;-89
2023/02/13 05:24:43;;;;;;;19.30;17.37;;;3.20;99.90;;;;;;5019742;28;20188;-89
2023/02/13 05:27:08;;;;;;;25.97;23.43;;;3.30;99.90;;;;;;5034638;28;20185;-90
2023/02/13 05:29:34;;;;;;;19.87;17.73;;;3.30;99.90;;;;;;5037173;28;20215;-88
2023/02/13 05:32:00;;;;;;;15.97;13.80;;;3.20;99.90;;;;;;5038232;28;20184;-90
2023/02/13 05:34:27;;;;;;;16.43;14.73;;;3.20;99.80;;;;;;5038173;28;20259;-87
2023/02/13 05:36:53;;;;;;;17.93;16.03;;;3.10;99.60;;;;;;5024952;28;20209;-89
2023/02/13 05:39:19;;;;;;;18.73;16.83;;;3.10;99.90;;;;;;5032710;28;20185;-90
2023/02/13 05:41:45;;;;;;;22.03;16.40;;;3.10;99.90;;;;;;5050341;28;20181;-89
2023/02/13 05:44:11;;;;;;;17.27;14.43;;;3.20;98.50;;;;;;5042557;28;20188;-89
2023/02/13 05:46:39;;;;;;;16.00;13.77;;;3.20;99.90;;;;;;5027504;28;20280;-90
2023/02/13 05:49:05;;;;;;;16.47;14.67;;;3.30;99.60;;;;;;5018321;28;20258;-90
2023/02/13 05:51:31;;;;;;;16.00;14.30;;;3.40;98.80;;;;;;5014238;28;20221;-90
2023/02/13 05:53:57;;;;;;;14.37;12.90;;;3.50;98.80;;;;;;5016564;28;20192;-89
2023/02/13 05:56:23;;;;;;;19.30;14.87;;;3.60;98.20;;;;;;5035329;28;20184;-89
2023/02/13 05:58:53;;;;;;;16.47;13.93;;;3.50;97.00;;;;;;5039559;28;20761;-88
2023/02/13 06:01:19;;;;;;;17.97;14.40;;;3.40;96.50;;;;;;5036247;28;20165;-91
2023/02/13 06:03:44;;;;;;;14.87;13.23;;;3.30;97.00;;;;;;5016888;28;20240;-90
2023/02/13 06:06:10;;;;;;;15.70;14.10;;;3.20;96.90;;;;;;5025623;28;20287;-90
2023/02/13 06:08:36;;;;;;;16.13;14.17;;;3.10;98.90;;;;;;5034021;28;20212;-90
2023/02/13 06:11:02;;;;;;;16.10;14.17;;;3.00;99.70;;;;;;5032762;28;20181;-90
2023/02/13 06:13:28;;;;;;;16.50;13.97;;;2.90;99.20;;;;;;5035290;28;20292;-89
2023/02/13 06:15:53;;;;;;;16.50;13.27;;;2.80;99.30;;;;;;5033430;28;20634;-90
2023/02/13 06:18:19;;;;;;;16.13;14.40;;;2.90;99.90;;;;;;5035049;28;20173;-90
2023/02/13 06:20:45;;;;;;;15.57;13.40;;;2.90;99.50;;;;;;5034025;28;20264;-89
2023/02/13 06:23:11;;;;;;;15.03;13.53;;;2.80;99.20;;;;;;5038105;28;20215;-91
2023/02/13 06:25:36;;;;;;;15.67;13.40;;;2.80;99.60;;;;;;5056929;28;20215;-90
2023/02/13 06:28:03;;;;;;;15.73;13.23;;;2.80;99.90;;;;;;5044789;28;20195;-90
2023/02/13 06:30:29;;;;;;;15.57;13.97;;;2.80;99.90;;;;;;5036061;28;20189;-89
2023/02/13 06:32:55;;;;;;;17.07;14.03;;;2.80;99.90;;;;;;5036773;28;20227;-89
2023/02/13 06:35:20;;;;;;;16.77;14.80;;;2.90;99.90;;;;;;5033784;28;20579;-90
2023/02/13 06:37:47;;;;;;;16.07;13.60;;;2.90;99.90;;;;;;5036711;28;20647;-92
2023/02/13 06:40:14;;;;;;;14.60;12.57;;;2.90;99.90;;;;;;5036717;28;20238;-91
2023/02/13 06:42:41;;;;;;;16.57;13.80;;;3.00;99.90;;;;;;5030252;28;20169;-93
2023/02/13 06:45:07;;;;;;;14.27;12.50;;;3.00;99.90;;;;;;5035671;28;20295;-91
2023/02/13 06:47:33;;;;;;;16.43;13.03;;;3.10;99.90;;;;;;5035305;28;20189;-91
2023/02/13 06:49:58;;;;;;;19.47;14.70;;;3.20;99.60;;;;;;5025866;28;20185;-91
2023/02/13 06:52:24;;;;;;;19.73;16.13;;;3.20;99.90;;;;;;5015821;28;20838;-91
2023/02/13 06:54:50;;;;;;;18.73;15.50;;;3.20;99.90;;;;;;5042442;28;20213;-92
2023/02/13 06:57:16;;;;;;;19.07;16.13;;;3.00;99.90;;;;;;5054682;28;20239;-93
2023/02/13 06:59:42;;;;;;;19.27;15.67;;;2.90;99.90;;;;;;5053230;28;20157;-92
2023/02/13 07:02:11;;;;;;;18.77;15.73;;;2.90;99.90;;;;;;5030158;28;21044;-89
2023/02/13 07:04:37;;;;;;;16.63;14.93;;;2.80;99.90;;;;;;5015180;28;20173;-90
2023/02/13 07:07:03;;;;;;;17.83;15.33;;;2.80;99.90;;;;;;5017496;28;20178;-90
2023/02/13 07:09:30;;;;;;;19.10;17.03;;;2.70;99.90;;;;;;5015235;28;20173;-89
2023/02/13 07:11:56;;;;;;;20.83;16.07;;;2.70;99.90;;;;;;5015469;28;20578;-91
2023/02/13 07:14:22;;;;;;;20.43;16.67;;;2.60;99.90;;;;;;5019784;28;20292;-91
2023/02/13 07:16:47;;;;;;;21.73;18.23;;;2.60;99.90;;;;;;5020792;28;20923;-91
2023/02/13 07:19:13;;;;;;;20.23;17.03;;;2.70;99.90;;;;;;5015798;28;20177;-90
2023/02/13 07:21:40;;;;;;;20.03;16.90;;;2.70;99.90;;;;;;5015815;28;20182;-89
2023/02/13 07:24:06;;;;;;;19.57;15.87;;;2.80;99.90;;;;;;5015538;28;20196;-88
2023/02/13 07:26:32;;;;;;;18.30;16.40;;;2.70;99.90;;;;;;5021429;28;20590;-84
2023/02/13 07:28:57;;;;;;;24.97;22.33;;;2.80;99.90;;;;;;5017121;28;20335;-89
2023/02/13 07:31:23;;;;;;;24.03;21.23;;;2.80;99.90;;;;;;5016642;28;20659;-90
2023/02/13 07:33:48;;;;;;;22.20;16.70;;;2.80;99.90;;;;;;5016244;28;20208;-91
2023/02/13 07:36:14;;;;;;;21.57;19.20;;;2.80;99.90;;;;;;5022828;28;20234;-91
2023/02/13 07:38:40;;;;;;;20.97;17.27;;;2.80;99.90;;;;;;5025946;28;20188;-90
2023/02/13 07:41:06;;;;;;;18.87;15.20;;;2.80;99.90;;;;;;5036536;28;20177;-91
2023/02/13 07:43:32;;;;;;;20.03;16.77;;;2.90;99.90;;;;;;5034242;28;20235;-91
2023/02/13 07:45:59;;;;;;;27.93;22.50;;;3.10;99.90;;;;;;5015583;28;20552;-91
2023/02/13 07:48:28;;;;;;;29.20;24.67;;;3.20;99.90;;;;;;5035348;28;20196;-90
2023/02/13 07:50:58;;;;;;;28.03;24.30;;;3.10;99.90;;;;;;5034567;28;20599;-91
2023/02/13 07:53:23;;;;;;;23.83;17.50;;;3.20;99.90;;;;;;5035430;28;20659;-92
2023/02/13 07:55:49;;;;;;;19.67;17.47;;;3.30;99.90;;;;;;5035531;28;20255;-91
2023/02/13 07:58:15;;;;;;;22.70;17.53;;;3.30;99.90;;;;;;5035190;28;20173;-90
2023/02/13 08:00:40;;;;;;;20.23;18.03;;;3.50;99.90;;;;;;5034138;28;20268;-90
2023/02/13 08:03:06;;;;;;;19.53;15.87;;;3.60;99.90;;;;;;5030871;28;20188;-89
2023/02/13 08:05:33;;;;;;;19.40;16.70;;;3.50;99.90;;;;;;5034360;28;20212;-90
2023/02/13 08:07:58;;;;;;;19.57;17.40;;;3.60;99.90;;;;;;5035014;28;20705;-90
2023/02/13 08:13:10;;;;;;;18.10;15.97;;;3.90;99.90;;;;;;5035457;28;20215;-91
2023/02/13 08:15:36;;;;;;;20.00;16.57;;;4.10;99.90;;;;;;5033699;28;20221;-89
2023/02/13 08:18:02;;;;;;;18.63;16.47;;;4.10;99.90;;;;;;5035770;28;20216;-88
2023/02/13 08:20:27;;;;;;;17.33;15.47;;;4.10;99.90;;;;;;5036217;28;20189;-90
2023/02/13 08:22:53;;;;;;;18.10;15.60;;;4.10;99.90;;;;;;5037730;28;20192;-89
2023/02/13 08:25:19;;;;;;;18.57;16.57;;;4.10;99.90;;;;;;5037303;28;20205;-89
2023/02/13 08:27:45;;;;;;;17.30;15.43;;;4.10;99.90;;;;;;5037431;28;20200;-89
2023/02/13 08:30:12;;;;;;;19.30;15.73;;;4.10;99.90;;;;;;5036903;28;20196;-90
2023/02/13 08:32:37;;;;;;;16.53;14.67;;;4.10;99.90;;;;;;5036066;28;20193;-89
2023/02/13 08:35:03;;;;;;;20.50;16.93;;;4.20;99.90;;;;;;5028072;28;20219;-90
2023/02/13 08:37:29;;;;;;;20.37;16.77;;;4.20;99.90;;;;;;5037408;28;20666;-90
2023/02/13 08:39:54;;;;;;;19.30;16.07;;;4.10;99.90;;;;;;5043776;28;20177;-88
2023/02/13 08:42:20;;;;;;;18.47;16.53;;;3.80;99.90;;;;;;5040859;28;20180;-91
2023/02/13 08:44:46;;;;;;;18.60;16.60;;;3.50;99.90;;;;;;5039787;28;20195;-90
2023/02/13 08:47:11;;;;;;;23.00;18.27;;;3.20;99.90;;;;;;5040439;28;20667;-91
2023/02/13 08:49:37;;;;;;;25.17;20.17;;;3.10;99.90;;;;;;5041757;28;20191;-88
2023/02/13 08:52:03;;;;;;;24.93;19.63;;;3.00;99.90;;;;;;5043844;28;20241;-91
2023/02/13 08:54:29;;;;;;;25.57;20.23;;;2.90;99.90;;;;;;5059205;28;20295;-92
2023/02/13 08:56:55;;;;;;;24.57;19.73;;;2.70;99.90;;;;;;5060563;28;20245;-93
2023/02/13 08:59:20;;;;;;;26.97;20.93;;;2.60;99.90;;;;;;5060660;28;20172;-93
2023/02/13 09:01:47;;;;;;;27.67;21.60;;;2.70;99.90;;;;;;5046129;28;20561;-89
2023/02/13 09:04:17;;;;;;;26.77;19.57;;;2.60;99.90;;;;;;5040185;28;20235;-89
2023/02/13 09:06:43;;;;;;;23.47;20.67;;;2.90;99.90;;;;;;5040025;28;20203;-90
2023/02/13 09:09:09;;;;;;;26.47;20.43;;;2.90;99.90;;;;;;5039904;28;20177;-89
2023/02/13 09:11:36;;;;;;;27.60;21.53;;;3.00;99.90;;;;;;5038670;28;20477;-90
2023/02/13 09:14:02;;;;;;;28.20;20.33;;;3.00;99.90;;;;;;5038892;28;20354;-90
2023/02/13 09:16:28;;;;;;;24.13;19.77;;;3.10;99.90;;;;;;5038997;28;20271;-89
2023/02/13 09:18:54;;;;;;;28.97;21.60;;;3.20;99.90;;;;;;5039669;28;20185;-91
2023/02/13 09:21:22;;;;;;;25.90;20.17;;;3.10;99.90;;;;;;5038826;28;20235;-91
2023/02/13 09:23:49;;;;;;;26.17;21.57;;;3.10;99.90;;;;;;5040286;28;20173;-90
2023/02/13 09:26:15;;;;;;;28.63;22.73;;;3.10;99.90;;;;;;5038416;28;20738;-89
2023/02/13 09:28:42;;;;;;;30.80;21.97;;;3.10;99.90;;;;;;5039792;28;20185;-90
2023/02/13 09:31:09;;;;;;;30.70;23.07;;;3.00;99.90;;;;;;5024266;28;20479;-91
2023/02/13 09:33:35;;;;;;;30.00;22.70;;;3.20;99.90;;;;;;5028316;28;20176;-91
2023/02/13 09:36:10;;;;;;;28.90;21.87;;;3.10;99.90;;;;;;5038975;28;20243;-90
2023/02/13 09:38:35;;;;;;;26.73;21.20;;;3.30;99.90;;;;;;5039507;28;20233;-90
2023/02/13 09:41:16;;;;;;;24.90;20.17;;;3.30;99.90;;;;;;5039674;28;20210;-90
2023/02/13 09:43:53;;;;;;;21.30;19.00;;;3.40;99.90;;;;;;5040239;28;20308;-90
2023/02/13 09:46:39;;;;;;;24.63;19.30;;;3.50;99.90;;;;;;5020282;28;20284;-89
2023/02/13 09:49:18;;;;;;;24.80;20.07;;;3.60;99.90;;;;;;5023244;28;20232;-90
2023/02/13 09:51:48;;;;;;;24.30;21.30;;;3.90;99.90;;;;;;5039896;28;20241;-89
2023/02/13 09:54:18;;;;;;;25.30;21.33;;;3.70;99.90;;;;;;5033987;28;20208;-91
2023/02/13 09:57:03;;;;;;;29.83;21.60;;;3.50;99.90;;;;;;5018819;28;20201;-91
2023/02/13 09:59:48;;;;;;;25.73;22.63;;;3.70;99.90;;;;;;5023326;28;20215;-89
2023/02/13 10:02:36;;;;;;;31.07;21.63;;;3.90;99.90;;;;;;5028954;28;20188;-89
2023/02/13 10:05:34;;;;;;;26.30;21.63;;;4.00;99.90;;;;;;5035989;28;20197;-90
2023/02/13 10:08:00;;;;;;;23.23;19.37;;;4.00;99.90;;;;;;5036440;28;20654;-90
2023/02/13 10:10:31;;;;;;;25.30;21.23;;;4.20;99.90;;;;;;5037954;28;20200;-91
2023/02/13 10:13:06;;;;;;;25.87;20.83;;;4.40;99.90;;;;;;5042439;28;20185;-89
2023/02/13 10:16:00;;;;;;;25.00;20.63;;;4.30;99.90;;;;;;5037989;28;20218;-90
2023/02/13 10:18:35;;;;;;;23.70;19.47;;;4.60;99.90;;;;;;5035674;28;20188;-90
2023/02/13 10:21:02;;;;;;;26.67;20.90;;;4.70;99.90;;;;;;5035909;28;20263;-90
2023/02/13 10:23:34;;;;;;;24.80;21.30;;;4.60;99.90;;;;;;5035426;28;20204;-90
2023/02/13 10:26:11;;;;;;;24.03;19.77;;;4.60;99.90;;;;;;5036531;28;20292;-90
2023/02/13 10:30:03;;;;;;;27.00;21.63;;;4.70;99.90;;;;;;5038058;28;20705;-92
2023/02/13 10:31:32;;;;;;;23.13;20.63;;;4.70;99.90;;;;;;5024474;28;20224;-90
2023/02/13 10:34:02;;;;;;;26.50;21.70;;;5.00;99.90;;;;;;5037608;28;20196;-89
2023/02/13 10:36:32;;;;;;;25.50;20.53;;;5.10;99.90;;;;;;5036910;28;20417;-90
2023/02/13 10:39:12;;;;;;;22.27;19.50;;;5.20;98.40;;;;;;5036979;28;20185;-90
2023/02/13 10:42:02;;;;;;;25.90;19.63;;;5.40;97.10;;;;;;5036981;28;20207;-90
2023/02/13 10:44:37;;;;;;;22.20;19.80;;;5.50;96.30;;;;;;5036973;28;20199;-91
2023/02/13 10:47:28;;;;;;;23.57;20.67;;;5.70;97.00;;;;;;5036506;28;20260;-89
2023/02/13 10:50:24;;;;;;;24.63;20.83;;;5.60;96.80;;;;;;5018099;28;20189;-89
2023/02/13 10:53:40;;;;;;;28.10;19.93;;;5.60;95.70;;;;;;5036979;28;20164;-91
2023/02/13 10:56:19;;;;;;;20.70;18.50;;;5.90;95.70;;;;;;4972292;28;20242;-89
2023/02/13 10:58:54;;;;;;;23.47;20.30;;;6.40;93.00;;;;;;5034003;28;20706;-89
2023/02/13 11:01:45;;;;;;;23.10;19.87;;;6.70;91.10;;;;;;5026683;28;20172;-90
2023/02/13 11:04:15;;;;;;;27.43;20.50;;;6.90;87.70;;;;;;5034007;28;20781;-90
2023/02/13 11:07:01;;;;;;;23.07;19.80;;;7.00;88.40;;;;;;5035776;28;20204;-90
2023/02/13 11:09:32;;;;;;;26.77;21.47;;;6.90;90.10;;;;;;5035516;28;20181;-90
2023/02/13 11:12:12;;;;;;;23.83;20.17;;;6.80;90.80;;;;;;5034772;28;20185;-91
2023/02/13 11:14:53;;;;;;;23.03;19.63;;;7.10;88.20;;;;;;5035624;28;20220;-89
2023/02/13 11:17:19;;;;;;;22.33;19.97;;;7.30;88.50;;;;;;5039403;28;20165;-90
2023/02/13 11:19:55;;;;;;;21.43;19.17;;;7.20;86.30;;;;;;5032395;28;20606;-88
2023/02/13 11:22:35;;;;;;;25.87;19.43;;;7.00;87.20;;;;;;5024574;28;20198;-89
2023/02/13 11:25:16;;;;;;;22.57;20.17;;;7.30;86.90;;;;;;5022494;28;20240;-88
2023/02/13 11:27:44;;;;;;;21.00;18.83;;;7.70;85.30;;;;;;5023569;28;20248;-90
2023/02/13 11:30:29;;;;;;;21.77;19.30;;;8.10;82.10;;;;;;5036703;28;20765;-91
2023/02/13 11:33:26;;;;;;;22.80;20.03;;;8.60;78.50;;;;;;5022531;28;20212;-90
2023/02/13 11:36:09;;;;;;;22.07;19.70;;;8.80;78.30;;;;;;5025289;28;20229;-90
2023/02/13 11:38:34;;;;;;;23.60;21.20;;;8.80;77.90;;;;;;5035290;28;20172;-90
2023/02/13 11:41:13;;;;;;;21.63;19.40;;;8.40;81.50;;;;;;5036764;28;20185;-90
2023/02/13 11:43:53;;;;;;;23.63;21.10;;;8.80;79.10;;;;;;5037770;28;20191;-90
2023/02/13 11:46:24;;;;;;;29.63;21.80;;;9.30;76.50;;;;;;5036226;28;20209;-88
2023/02/13 11:48:57;;;;;;;23.00;20.60;;;9.30;73.40;;;;;;5035868;28;20196;-91
2023/02/13 11:51:52;;;;;;;22.30;20.00;;;8.70;78.50;;;;;;5035761;28;20181;-90
2023/02/13 11:54:33;;;;;;;24.00;19.77;;;8.60;79.10;;;;;;5030356;28;20388;-90
2023/02/13 11:57:02;;;;;;;21.30;19.20;;;9.30;75.40;;;;;;5042261;28;20180;-92
2023/02/13 11:59:32;;;;;;;21.87;19.27;;;9.80;71.90;;;;;;5056179;28;20177;-90
2023/02/13 12:02:08;;;;;;;21.00;18.87;;;10.10;70.20;;;;;;5055333;28;20177;-90
2023/02/13 12:04:34;;;;;;;21.23;19.07;;;10.20;69.30;;;;;;5049152;28;20334;-89
2023/02/13 12:07:03;;;;;;;20.50;18.40;;;10.30;68.30;;;;;;5035854;28;20213;-89
2023/02/13 12:09:30;;;;;;;20.90;18.77;;;10.70;68.80;;;;;;5035529;28;20715;-92
2023/02/13 12:12:01;;;;;;;22.50;20.27;;;11.00;66.30;;;;;;5033414;28;20206;-87
2023/02/13 12:14:37;;;;;;;22.10;19.77;;;11.40;65.20;;;;;;5034324;28;20286;-89
2023/02/13 12:17:11;;;;;;;22.47;20.17;;;10.90;66.30;;;;;;5033683;28;20188;-88
2023/02/13 12:19:43;;;;;;;22.80;20.40;;;10.60;67.70;;;;;;5027517;28;20338;-88
2023/02/13 12:22:30;;;;;;;22.50;20.20;;;10.30;70.00;;;;;;5034501;28;20178;-89
2023/02/13 12:25:45;;;;;;;22.90;20.50;;;10.40;69.20;;;;;;5036001;28;20196;-89
2023/02/13 12:28:31;;;;;;;22.17;19.90;;;10.70;68.10;;;;;;5000475;28;20280;-88
2023/02/13 12:31:09;;;;;;;22.40;20.10;;;10.70;67.70;;;;;;5039137;28;20179;-89
2023/02/13 12:33:34;;;;;;;25.90;19.67;;;10.90;66.70;;;;;;5034406;28;20182;-88
2023/02/13 12:36:18;;;;;;;20.93;18.90;;;11.30;65.90;;;;;;5034824;28;20231;-90
2023/02/13 12:39:09;;;;;;;21.73;19.53;;;11.60;63.60;;;;;;5035775;28;20218;-87
2023/02/13 12:41:49;;;;;;;27.17;19.90;;;11.10;66.10;;;;;;5037621;28;20183;-88
2023/02/13 12:44:32;;;;;;;21.13;18.80;;;11.30;66.00;;;;;;5036665;28;20164;-90
2023/02/13 12:47:22;;;;;;;20.50;18.50;;;11.80;62.50;;;;;;5034927;28;20170;-90
2023/02/13 12:50:11;;;;;;;20.53;18.53;;;12.60;60.50;;;;;;5036459;28;20165;-90
2023/02/13 12:53:14;;;;;;;35.23;20.23;;;11.70;63.60;;;;;;5035848;28;20668;-89
2023/02/13 12:55:52;;;;;;;20.80;18.00;;;12.20;62.20;;;;;;5025262;28;20312;-90
2023/02/13 12:58:30;;;;;;;20.50;18.57;;;12.10;62.10;;;;;;5023701;28;20182;-89
2023/02/13 13:01:02;;;;;;;20.40;18.43;;;12.20;62.90;;;;;;5018415;28;20205;-88
2023/02/13 13:03:43;;;;;;;21.03;18.87;;;11.80;63.20;;;;;;5033739;28;20165;-88
2023/02/13 13:06:26;;;;;;;20.53;18.47;;;11.80;63.40;;;;;;5042749;28;20200;-91
2023/02/13 13:09:27;;;;;;;20.70;18.90;;;12.10;63.30;;;;;;5055476;28;20165;-92
2023/02/13 13:12:31;;;;;;;20.40;18.40;;;12.80;60.50;;;;;;5055121;28;20182;-91
2023/02/13 13:15:21;;;;;;;20.60;18.80;;;12.90;59.90;;;;;;5040612;28;20227;-87
2023/02/13 13:17:51;;;;;;;20.67;18.60;;;12.30;61.80;;;;;;5035275;28;20710;-90
2023/02/13 13:20:45;;;;;;;21.97;18.23;;;12.10;63.50;;;;;;5034813;28;20170;-89
2023/02/13 13:23:37;;;;;;;20.17;18.27;;;12.60;60.90;;;;;;5034541;28;20197;-89
2023/02/13 13:26:24;;;;;;;23.40;21.10;;;13.10;58.20;;;;;;5037532;28;20224;-90
2023/02/13 13:28:56;;;;;;;23.97;21.47;;;12.60;61.00;;;;;;5021609;28;20182;-89
2023/02/13 13:31:25;;;;;;;29.00;22.57;;;12.50;61.90;;;;;;5017871;28;20175;-88
2023/02/13 13:33:51;;;;;;;20.90;18.97;;;11.90;64.10;;;;;;5035832;28;20683;-89
2023/02/13 13:36:47;;;;;;;19.10;17.40;;;12.00;63.80;;;;;;5037599;28;20224;-89
2023/02/13 13:39:42;;;;;;;22.47;20.17;;;12.20;62.00;;;;;;5037660;28;20157;-89
2023/02/13 13:42:15;;;;;;;23.70;21.53;;;12.00;64.20;;;;;;5036336;28;20827;-89
2023/02/13 13:44:59;;;;;;;22.13;20.07;;;12.10;64.50;;;;;;5035211;28;20181;-90